Time;durP1;ratioP1;P1;durP2;ratioP2;P2;SDS_P1;SDS_P2;PMS_P1;PMS_P2;Temp;Humidity;BMP_temperature;BMP_pressure;BME280_temperature;BME280_humidity;BME280_pressure;Samples;Min_cycle;Max_cycle;Signal;HPM_P1;HPM_P2
2022/06/27 00:02:06;;;;;;;5.47;1.87;;;;;;;25.09;47.75;97473.50;8414251;28;20243;-81
2022/06/27 00:06:09;;;;;;;2.63;1.40;;;;;;;25.09;47.49;97477.94;8415109;28;20419;-80
2022/06/27 00:10:13;;;;;;;1.77;1.23;;;;;;;25.04;48.00;97475.81;8414816;28;20232;-80
2022/06/27 00:14:17;;;;;;;1.50;1.37;;;;;;;25.05;48.17;97488.06;8414254;28;20243;-81
2022/06/27 00:18:20;;;;;;;7.90;1.60;;;;;;;25.02;47.82;97506.97;8414427;28;20573;-81
2022/06/27 00:22:23;;;;;;;2.40;1.60;;;;;;;24.93;47.15;97505.34;8414203;28;20241;-80
2022/06/27 00:26:26;;;;;;;2.50;1.63;;;;;;;24.80;48.12;97526.22;8414705;28;20243;-80
2022/06/27 00:30:30;;;;;;;3.30;1.60;;;;;;;24.76;47.76;97520.44;8414360;28;20231;-81
2022/06/27 00:34:32;;;;;;;3.57;1.77;;;;;;;24.68;48.13;97515.16;8414217;28;20228;-80
2022/06/27 00:38:35;;;;;;;2.03;1.63;;;;;;;24.64;48.02;97522.59;8414258;28;20435;-80
2022/06/27 00:42:38;;;;;;;4.13;1.40;;;;;;;24.58;48.59;97525.94;8414253;28;20228;-81
2022/06/27 00:46:43;;;;;;;1.70;1.40;;;;;;;24.57;48.31;97525.09;8414256;28;20241;-82
2022/06/27 00:50:46;;;;;;;1.83;1.60;;;;;;;24.60;48.23;97526.59;8413881;28;20519;-82
2022/06/27 00:54:49;;;;;;;2.70;1.70;;;;;;;24.65;48.70;97528.72;8414183;28;20244;-82
2022/06/27 00:58:52;;;;;;;2.27;1.50;;;;;;;24.55;49.74;97540.31;8413748;28;20544;-82
2022/06/27 01:02:57;;;;;;;4.57;1.80;;;;;;;24.45;49.63;97544.09;8413559;28;20537;-82
2022/06/27 01:06:59;;;;;;;3.73;1.50;;;;;;;24.37;49.37;97543.09;8413583;28;20234;-82
2022/06/27 01:11:02;;;;;;;2.57;1.60;;;;;;;24.37;49.42;97540.47;8413635;28;20239;-81
2022/06/27 01:15:06;;;;;;;3.53;1.70;;;;;;;24.44;49.79;97545.09;8413773;28;20415;-81
2022/06/27 01:19:11;;;;;;;3.33;1.53;;;;;;;24.42;49.75;97539.13;8413612;28;20230;-81
2022/06/27 01:23:16;;;;;;;2.30;1.63;;;;;;;24.28;49.88;97538.81;8415830;28;20232;-81
2022/06/27 01:27:18;;;;;;;3.57;1.77;;;;;;;24.28;50.38;97538.00;8420141;28;20234;-81
2022/06/27 01:31:21;;;;;;;4.47;2.17;;;;;;;24.30;50.32;97543.94;8420229;28;20237;-82
2022/06/27 01:35:27;;;;;;;3.27;2.00;;;;;;;24.20;50.48;97544.91;8419606;28;20351;-81
2022/06/27 01:39:32;;;;;;;3.03;2.10;;;;;;;24.28;50.16;97543.28;8419898;28;20544;-80
2022/06/27 01:43:34;;;;;;;3.13;1.87;;;;;;;24.27;50.23;97545.06;8419781;28;20232;-80
2022/06/27 01:47:37;;;;;;;3.60;1.77;;;;;;;24.29;49.86;97558.16;8419593;28;20235;-81
2022/06/27 01:51:41;;;;;;;3.23;1.80;;;;;;;24.28;50.76;97586.44;8419244;28;20230;-81
2022/06/27 01:55:45;;;;;;;4.60;1.87;;;;;;;24.13;50.96;97643.63;8419398;28;20231;-81
2022/06/27 01:59:48;;;;;;;4.23;1.90;;;;;;;24.02;50.69;97673.81;8419167;28;20233;-81
2022/06/27 02:03:51;;;;;;;4.30;1.70;;;;;;;24.20;49.95;97684.31;8419040;28;20224;-80
2022/06/27 02:07:56;;;;;;;2.97;1.70;;;;;;;24.14;49.46;97698.16;8419037;28;20230;-81
2022/06/27 02:12:18;;;;;;;1.60;1.50;;;;;;;24.26;48.66;97691.59;8419078;28;20466;-80
2022/06/27 02:16:21;;;;;;;2.50;1.87;;;;;;;24.38;48.51;97705.34;8410416;28;20234;-80
2022/06/27 02:20:24;;;;;;;3.33;1.37;;;;;;;24.36;48.22;97702.84;8418242;28;20231;-80
2022/06/27 02:24:27;;;;;;;2.33;1.60;;;;;;;24.40;48.42;97717.41;8418540;28;20244;-80
2022/06/27 02:28:32;;;;;;;1.83;1.60;;;;;;;24.48;48.45;97745.72;8418518;28;20242;-80
2022/06/27 02:32:35;;;;;;;3.63;1.67;;;;;;;24.04;49.64;97768.88;8418404;28;20231;-80
2022/06/27 02:36:39;;;;;;;5.87;2.00;;;;;;;23.87;52.96;97784.66;8417285;28;20257;-81
2022/06/27 02:40:45;;;;;;;3.70;2.87;;;;;;;23.82;54.80;97808.09;8418123;28;20547;-81
2022/06/27 02:44:50;;;;;;;7.27;3.03;;;;;;;23.82;55.75;97810.75;8418074;28;20240;-81
2022/06/27 02:48:53;;;;;;;5.23;3.40;;;;;;;23.64;56.99;97821.31;8417965;28;20227;-81
2022/06/27 02:52:57;;;;;;;4.57;3.37;;;;;;;23.48;58.66;97835.25;8399825;28;20237;-81
2022/06/27 02:57:05;;;;;;;7.47;4.27;;;;;;;23.51;60.40;97832.28;8384328;28;20229;-82
2022/06/27 03:01:11;;;;;;;8.40;4.30;;;;;;;23.59;60.23;97834.19;8389536;28;20423;-82
2022/06/27 03:05:13;;;;;;;5.20;4.30;;;;;;;23.51;60.91;97813.78;8417217;28;20224;-82
2022/06/27 03:09:16;;;;;;;5.10;4.00;;;;;;;23.56;60.77;97808.88;8417017;28;20426;-82
2022/06/27 03:13:19;;;;;;;6.93;4.60;;;;;;;23.64;60.42;97813.41;8416798;28;20409;-81
2022/06/27 03:17:23;;;;;;;6.73;4.37;;;;;;;23.63;60.72;97798.53;8416406;28;20237;-81
2022/06/27 03:21:26;;;;;;;9.90;4.97;;;;;;;23.38;62.20;97824.78;8416555;28;20451;-82
2022/06/27 03:25:29;;;;;;;7.30;4.50;;;;;;;23.37;62.49;97753.59;8413459;28;20232;-82
2022/06/27 03:29:31;;;;;;;12.63;6.07;;;;;;;23.16;63.17;97683.44;8393463;28;20239;-82
2022/06/27 03:33:36;;;;;;;7.43;4.90;;;;;;;22.94;63.87;97644.28;8383176;28;20416;-82
2022/06/27 03:37:38;;;;;;;8.83;5.90;;;;;;;22.56;65.37;97617.25;8393652;28;20237;-81
2022/06/27 03:41:42;;;;;;;6.23;4.23;;;;;;;22.81;63.88;97590.09;8408099;28;20368;-81
2022/06/27 03:45:45;;;;;;;7.17;4.40;;;;;;;22.65;64.15;97494.94;8416008;28;20227;-81
2022/06/27 03:50:01;;;;;;;5.53;4.07;;;;;;;22.35;64.64;97481.25;8415863;28;20223;-81
2022/06/27 03:54:04;;;;;;;6.23;3.90;;;;;;;22.60;64.33;97561.41;8415631;28;20223;-81
2022/06/27 03:58:07;;;;;;;5.73;3.90;;;;;;;22.76;63.65;97589.72;8415588;28;20428;-81
2022/06/27 04:02:10;;;;;;;5.87;3.90;;;;;;;23.08;62.46;97619.19;8415594;28;20226;-81
2022/06/27 04:06:14;;;;;;;8.57;3.90;;;;;;;23.25;61.88;97618.28;8415297;28;20364;-81
2022/06/27 04:10:17;;;;;;;5.40;4.57;;;;;;;23.08;62.57;97645.59;8415183;28;20238;-81
2022/06/27 04:14:20;;;;;;;4.87;3.97;;;;;;;23.22;62.79;97660.84;8400418;28;20235;-81
2022/06/27 04:18:22;;;;;;;11.17;4.00;;;;;;;23.28;62.34;97641.72;8402968;28;20436;-80
2022/06/27 04:22:28;;;;;;;7.93;4.60;;;;;;;23.00;62.38;97635.75;8414799;28;20234;-81
2022/06/27 04:26:31;;;;;;;6.33;4.30;;;;;;;22.65;65.45;97622.44;8414837;28;20238;-81
2022/06/27 04:30:33;;;;;;;5.73;4.50;;;;;;;22.53;65.49;97618.41;8414648;28;20413;-81
2022/06/27 04:34:36;;;;;;;7.37;4.30;;;;;;;22.98;64.52;97598.09;8414658;28;20533;-84
2022/06/27 04:38:40;;;;;;;9.73;4.30;;;;;;;23.18;63.39;97604.84;8414155;28;20235;-84
2022/06/27 04:42:44;;;;;;;6.60;4.50;;;;;;;23.29;62.92;97589.75;8414416;28;20235;-78
2022/06/27 04:46:48;;;;;;;7.67;4.63;;;;;;;23.37;63.73;97580.03;8414208;28;20329;-77
2022/06/27 04:50:51;;;;;;;6.73;4.70;;;;;;;23.48;63.92;97580.75;8414299;28;20268;-78
2022/06/27 04:54:56;;;;;;;6.30;4.57;;;;;;;23.55;63.69;97579.09;8414087;28;20230;-77
2022/06/27 04:58:59;;;;;;;6.47;4.70;;;;;;;23.60;63.57;97582.09;8413570;28;20232;-77
2022/06/27 05:03:03;;;;;;;8.00;4.70;;;;;;;23.39;63.02;97585.97;8413789;28;20239;-77
2022/06/27 05:07:06;;;;;;;6.87;5.03;;;;;;;23.74;62.35;97580.66;8413745;28;20245;-78
2022/06/27 05:11:10;;;;;;;5.27;4.20;;;;;;;23.96;61.74;97573.97;8413825;28;20244;-78
2022/06/27 05:15:13;;;;;;;4.87;4.37;;;;;;;24.09;60.95;97563.75;8413646;28;20238;-78
2022/06/27 05:19:16;;;;;;;5.40;3.80;;;;;;;24.04;60.46;97570.53;8413476;28;20232;-76
2022/06/27 05:23:19;;;;;;;6.63;4.10;;;;;;;24.07;61.99;97583.44;8413207;28;20341;-78
2022/06/27 05:27:23;;;;;;;4.93;3.97;;;;;;;23.77;61.69;97588.28;8412124;28;20231;-77
2022/06/27 05:31:26;;;;;;;6.73;4.60;;;;;;;23.94;61.52;97581.25;8412655;28;20623;-78
2022/06/27 05:35:30;;;;;;;7.17;4.17;;;;;;;24.01;60.81;97590.19;8412617;28;20246;-78
2022/06/27 05:39:33;;;;;;;4.53;3.90;;;;;;;23.84;61.37;97591.97;8411816;28;20247;-78
2022/06/27 05:43:38;;;;;;;4.30;3.77;;;;;;;23.98;60.87;97598.44;8412432;28;20230;-77
2022/06/27 05:47:41;;;;;;;4.10;3.70;;;;;;;24.11;61.48;97611.22;8412291;28;20234;-77
2022/06/27 05:51:47;;;;;;;6.20;4.37;;;;;;;24.06;61.78;97614.31;8412320;28;20237;-78
2022/06/27 05:55:50;;;;;;;5.73;4.40;;;;;;;24.16;61.81;97632.69;8412048;28;20229;-78
2022/06/27 05:59:55;;;;;;;7.37;4.70;;;;;;;24.02;63.01;97643.91;8412215;28;20230;-77
2022/06/27 06:03:59;;;;;;;5.87;4.83;;;;;;;24.11;61.97;97637.66;8411874;28;20227;-77
2022/06/27 06:08:03;;;;;;;7.60;4.70;;;;;;;24.24;61.58;97638.03;8412211;28;20237;-78
2022/06/27 06:12:09;;;;;;;5.10;4.60;;;;;;;24.43;60.77;97643.97;8417195;28;20231;-78
2022/06/27 06:16:21;;;;;;;5.83;4.50;;;;;;;24.54;59.97;97641.91;8418503;28;20297;-78
2022/06/27 06:20:23;;;;;;;4.90;4.20;;;;;;;24.63;59.44;97652.47;8417907;28;20232;-77
2022/06/27 06:24:26;;;;;;;6.63;4.30;;;;;;;24.72;59.62;97662.91;8418112;28;20419;-77
2022/06/27 06:28:35;;;;;;;5.87;4.30;;;;;;;24.94;59.81;97672.03;8418295;28;20240;-77
2022/06/27 06:32:39;;;;;;;4.60;4.07;;;;;;;25.05;58.86;97677.97;8418178;28;20233;-77
2022/06/27 06:36:43;;;;;;;5.80;4.23;;;;;;;25.06;58.79;97677.81;8418164;28;20443;-78
2022/06/27 06:40:46;;;;;;;5.60;4.50;;;;;;;25.13;58.32;97680.59;8417783;28;20551;-77
2022/06/27 06:44:52;;;;;;;5.07;4.20;;;;;;;24.97;58.84;97686.75;8417764;28;20226;-78
2022/06/27 06:48:58;;;;;;;6.03;4.00;;;;;;;25.38;56.93;97697.34;8417764;28;20243;-78
2022/06/27 06:53:01;;;;;;;5.50;4.23;;;;;;;25.54;56.66;97702.59;8417668;28;20451;-78
2022/06/27 06:57:04;;;;;;;6.90;4.27;;;;;;;25.71;56.19;97703.38;8416825;28;20232;-78
2022/06/27 07:01:07;;;;;;;6.10;4.13;;;;;;;25.74;56.06;97705.69;8416793;28;20223;-78
2022/06/27 07:05:12;;;;;;;5.83;3.57;;;;;;;25.94;55.78;97718.59;8416727;28;20222;-77
2022/06/27 07:09:15;;;;;;;5.13;3.77;;;;;;;26.43;55.30;97722.84;8416215;28;20284;-77
2022/06/27 07:13:19;;;;;;;4.33;3.77;;;;;;;26.56;53.97;97738.19;8416196;28;20245;-78
2022/06/27 07:17:24;;;;;;;3.70;3.40;;;;;;;26.41;54.90;97740.78;8416146;28;20231;-78
2022/06/27 07:21:30;;;;;;;4.30;3.47;;;;;;;26.37;55.88;97748.25;8415131;28;20234;-78
2022/06/27 07:25:33;;;;;;;4.60;3.73;;;;;;;26.65;54.63;97748.59;8415730;28;20568;-78
2022/06/27 07:29:36;;;;;;;4.10;3.70;;;;;;;26.88;54.29;97753.13;8416062;28;20234;-78
2022/06/27 07:33:39;;;;;;;7.33;3.83;;;;;;;26.88;54.17;97756.63;8416249;28;20429;-78
2022/06/27 07:37:47;;;;;;;5.33;3.43;;;;;;;27.05;53.83;97757.31;8415893;28;20226;-81
2022/06/27 07:41:51;;;;;;;4.00;2.80;;;;;;;27.30;50.27;97750.00;8415862;28;20275;-81
2022/06/27 07:45:56;;;;;;;4.80;3.20;;;;;;;27.48;50.99;97751.50;8416002;28;20234;-81
2022/06/27 07:49:59;;;;;;;3.77;3.40;;;;;;;27.67;49.89;97755.47;8415664;28;20233;-82
2022/06/27 07:54:04;;;;;;;4.37;3.43;;;;;;;27.43;52.69;97751.22;8415485;28;20234;-79
2022/06/27 07:58:07;;;;;;;5.87;3.90;;;;;;;27.56;50.72;97748.75;8415192;28;20567;-81
2022/06/27 08:02:10;;;;;;;4.93;3.50;;;;;;;27.76;50.79;97757.03;8415160;28;20257;-82
2022/06/27 08:06:15;;;;;;;4.77;3.53;;;;;;;28.09;50.31;97767.34;8415151;28;20263;-80
2022/06/27 08:10:19;;;;;;;5.77;3.83;;;;;;;27.83;50.91;97784.56;8415192;28;20228;-82
2022/06/27 08:14:22;;;;;;;5.13;3.97;;;;;;;27.53;51.12;97778.41;8414665;28;20282;-80
2022/06/27 08:18:26;;;;;;;4.43;3.67;;;;;;;27.37;51.78;97792.63;8414894;28;20241;-81
2022/06/27 08:22:30;;;;;;;5.00;3.80;;;;;;;27.07;52.56;97787.22;8414401;28;20242;-84
2022/06/27 08:26:36;;;;;;;5.43;3.70;;;;;;;27.16;51.44;97801.25;8409636;28;20281;-83
2022/06/27 08:30:39;;;;;;;4.77;3.37;;;;;;;27.90;49.73;97810.47;8389357;28;20239;-82
2022/06/27 08:34:43;;;;;;;3.87;3.10;;;;;;;27.42;50.38;97802.75;8380732;28;20245;-80
2022/06/27 08:38:48;;;;;;;5.50;3.00;;;;;;;27.17;51.18;97810.03;8381406;28;20229;-81
2022/06/27 08:42:54;;;;;;;9.40;3.13;;;;;;;27.40;49.18;97810.09;8380962;28;20579;-80
2022/06/27 08:46:57;;;;;;;3.53;3.10;;;;;;;26.80;50.62;97820.41;8380889;28;20230;-80
2022/06/27 08:51:01;;;;;;;3.43;2.73;;;;;;;27.64;48.97;97824.97;8380653;28;20229;-80
2022/06/27 08:55:05;;;;;;;4.17;2.40;;;;;;;27.18;49.71;97836.44;8380872;28;20240;-80
2022/06/27 08:59:10;;;;;;;4.80;2.53;;;;;;;26.59;50.86;97839.59;8380252;28;20231;-80
2022/06/27 09:03:20;;;;;;;5.97;2.50;;;;;;;26.48;51.13;97843.44;8403401;28;20583;-80
2022/06/27 09:07:23;;;;;;;3.57;1.90;;;;;;;26.95;50.71;97847.06;8413030;28;20527;-79
2022/06/27 09:11:29;;;;;;;4.20;2.30;;;;;;;26.79;50.63;97860.41;8413184;28;20245;-80
2022/06/27 09:15:48;;;;;;;3.97;2.20;;;;;;;26.77;49.87;97862.41;8414717;28;20236;-80
2022/06/27 09:19:53;;;;;;;2.87;2.00;;;;;;;26.62;49.71;97859.69;8413166;28;20233;-80
2022/06/27 09:23:58;;;;;;;2.77;1.53;;;;;;;26.83;49.51;97867.06;8413598;28;20252;-80
2022/06/27 09:28:01;;;;;;;2.60;1.33;;;;;;;27.18;48.21;97872.84;8412863;28;20236;-79
2022/06/27 09:32:11;;;;;;;4.67;1.43;;;;;;;26.95;49.41;97883.44;8414182;28;20233;-81
2022/06/27 09:36:15;;;;;;;5.97;2.00;;;;;;;26.68;49.83;97881.06;8414286;28;20239;-80
2022/06/27 09:40:18;;;;;;;2.90;1.30;;;;;;;26.84;49.32;97882.00;8413709;28;20242;-80
2022/06/27 09:44:24;;;;;;;4.40;1.77;;;;;;;26.94;49.37;97879.13;8413957;28;20231;-79
2022/06/27 09:48:28;;;;;;;5.77;1.50;;;;;;;27.40;48.17;97874.72;8386011;28;20530;-79
2022/06/27 09:52:31;;;;;;;2.90;1.30;;;;;;;28.08;46.60;97858.84;8386228;28;20318;-80
2022/06/27 09:56:35;;;;;;;3.87;1.50;;;;;;;28.53;45.69;97859.72;8386287;28;20238;-78
2022/06/27 10:00:37;;;;;;;4.13;1.60;;;;;;;28.58;44.68;97845.84;8386864;28;20571;-78
2022/06/27 10:04:44;;;;;;;3.43;1.20;;;;;;;29.06;43.99;97856.84;8417509;28;20237;-80
2022/06/27 10:08:48;;;;;;;2.40;1.27;;;;;;;28.95;43.81;97854.69;8390719;28;20270;-80
2022/06/27 10:12:58;;;;;;;1.87;1.03;;;;;;;29.21;45.75;97851.50;8385642;28;20588;-78
2022/06/27 10:17:02;;;;;;;3.90;1.27;;;;;;;29.31;43.56;97854.69;8385778;28;20235;-78
2022/06/27 10:21:25;;;;;;;2.10;1.43;;;;;;;29.93;43.06;97855.00;8398860;28;20241;-78
2022/06/27 10:25:35;;;;;;;3.50;1.30;;;;;;;29.77;42.23;97853.47;8418286;28;20417;-78
2022/06/27 10:29:44;;;;;;;3.13;1.30;;;;;;;30.03;41.59;97860.84;8418659;28;20240;-78
2022/06/27 10:33:50;;;;;;;3.87;1.10;;;;;;;29.88;42.54;97863.59;8418255;28;20228;-78
2022/06/27 10:37:54;;;;;;;1.73;0.80;;;;;;;30.50;41.24;97866.47;8418248;28;20227;-76
2022/06/27 10:41:57;;;;;;;4.57;1.00;;;;;;;30.83;40.69;97881.84;8418123;28;20258;-76
2022/06/27 10:46:00;;;;;;;2.57;0.83;;;;;;;31.41;40.27;97881.41;8417945;28;20225;-77
2022/06/27 10:50:13;;;;;;;1.43;0.83;;;;;;;31.52;38.03;97864.78;8418190;28;20514;-77
2022/06/27 10:54:20;;;;;;;2.20;0.97;;;;;;;31.09;38.53;97860.59;8418005;28;20232;-77
2022/06/27 10:58:25;;;;;;;3.60;1.20;;;;;;;30.52;39.83;97873.28;8416275;28;20232;-76
2022/06/27 11:02:29;;;;;;;6.03;1.23;;;;;;;30.89;39.22;97870.38;8417174;28;20246;-76
2022/06/27 11:06:32;;;;;;;1.83;0.93;;;;;;;31.02;39.56;97866.94;8417427;28;20260;-76
2022/06/27 11:10:36;;;;;;;3.37;1.30;;;;;;;31.27;37.93;97870.69;8417089;28;20250;-76
2022/06/27 11:14:48;;;;;;;1.93;1.10;;;;;;;31.17;37.50;97878.28;8417124;28;20237;-76
2022/06/27 11:19:00;;;;;;;3.53;0.80;;;;;;;30.92;38.81;97878.84;8416902;28;20249;-76
2022/06/27 11:23:03;;;;;;;2.03;0.80;;;;;;;31.01;39.40;97881.31;8416794;28;20238;-76
2022/06/27 11:27:07;;;;;;;2.27;0.90;;;;;;;30.65;38.65;97875.19;8416598;28;20270;-76
2022/06/27 11:35:33;;;;;;;4.23;1.07;;;;;;;29.78;39.97;97876.47;8416176;28;20449;-76
2022/06/27 11:39:37;;;;;;;4.83;1.10;;;;;;;29.67;40.84;97892.97;8415766;28;20255;-76
2022/06/27 11:43:49;;;;;;;2.97;1.03;;;;;;;29.58;41.98;97887.75;8416007;28;20232;-76
2022/06/27 11:47:52;;;;;;;2.77;1.13;;;;;;;29.64;42.32;97902.16;8416066;28;20225;-76
2022/06/27 11:51:59;;;;;;;2.20;1.43;;;;;;;29.45;41.56;97906.28;8407139;28;20237;-77
2022/06/27 11:56:26;;;;;;;4.53;1.60;;;;;;;29.36;41.89;97910.94;8415909;28;20222;-78
2022/06/27 12:00:32;;;;;;;3.90;2.10;;;;;;;29.18;42.59;97919.34;8415167;28;20236;-77
2022/06/27 12:04:35;;;;;;;3.97;2.23;;;;;;;29.05;43.69;97924.50;8382391;28;20231;-78
2022/06/27 12:09:02;;;;;;;4.07;2.47;;;;;;;29.38;42.14;97935.59;8382286;28;20243;-77
2022/06/27 12:13:05;;;;;;;5.30;2.53;;;;;;;29.42;42.52;97936.84;8394118;28;20232;-78
2022/06/27 12:17:09;;;;;;;5.63;2.43;;;;;;;29.21;43.69;97939.50;8414917;28;20231;-78
2022/06/27 12:21:13;;;;;;;3.60;2.77;;;;;;;29.21;42.70;97942.16;8415093;28;20311;-78
2022/06/27 12:25:16;;;;;;;5.67;2.50;;;;;;;29.49;42.73;97944.09;8414954;28;20234;-78
2022/06/27 12:29:19;;;;;;;5.20;3.00;;;;;;;29.37;42.82;97936.59;8414950;28;20229;-78
2022/06/27 12:33:23;;;;;;;4.87;3.30;;;;;;;29.41;42.69;97935.19;8414220;28;20240;-78
2022/06/27 12:37:26;;;;;;;4.40;3.10;;;;;;;28.74;44.05;97932.72;8414566;28;20404;-79
2022/06/27 12:41:29;;;;;;;6.63;3.10;;;;;;;29.10;43.16;97938.09;8414591;28;20242;-78
2022/06/27 12:45:32;;;;;;;4.33;3.13;;;;;;;28.74;43.33;97936.22;8414441;28;20241;-79
2022/06/27 12:49:36;;;;;;;3.83;3.27;;;;;;;28.31;44.07;97930.69;8414262;28;20563;-79
2022/06/27 12:53:39;;;;;;;3.60;3.00;;;;;;;28.32;44.38;97942.97;8414200;28;20238;-79
2022/06/27 12:57:43;;;;;;;5.30;3.10;;;;;;;28.41;44.45;97954.38;8414115;28;20246;-79
2022/06/27 13:01:46;;;;;;;4.63;2.90;;;;;;;27.90;44.70;97959.50;8413835;28;20423;-79
2022/06/27 13:05:51;;;;;;;4.50;3.13;;;;;;;28.18;44.32;97955.25;8413850;28;20230;-79
2022/06/27 13:09:54;;;;;;;3.67;3.23;;;;;;;28.58;43.63;97958.53;8414117;28;20227;-79
2022/06/27 13:13:57;;;;;;;4.70;3.03;;;;;;;28.12;43.99;97961.31;8414218;28;20424;-80
2022/06/27 13:18:00;;;;;;;4.13;2.93;;;;;;;28.90;43.27;97958.34;8395725;28;20223;-78
2022/06/27 13:22:04;;;;;;;4.10;3.30;;;;;;;28.47;43.73;97969.63;8380406;28;20234;-79
2022/06/27 13:26:07;;;;;;;9.23;3.20;;;;;;;27.72;45.31;97967.72;8380282;28;20234;-79
2022/06/27 13:30:10;;;;;;;5.83;3.17;;;;;;;27.74;45.09;97973.69;8380347;28;20529;-80
2022/06/27 13:34:13;;;;;;;4.30;2.70;;;;;;;29.09;42.32;97970.28;8379878;28;20232;-80
2022/06/27 13:38:38;;;;;;;4.73;2.87;;;;;;;29.30;41.98;97972.19;8380027;28;20235;-78
2022/06/27 13:42:40;;;;;;;3.60;2.80;;;;;;;28.95;42.74;97980.75;8379991;28;20251;-79
2022/06/27 13:46:44;;;;;;;4.47;2.70;;;;;;;29.26;42.59;97978.91;8388601;28;20248;-79
2022/06/27 13:50:47;;;;;;;4.57;3.10;;;;;;;28.60;42.60;97983.16;8413339;28;20295;-79
2022/06/27 13:54:52;;;;;;;4.03;2.60;;;;;;;28.51;43.79;97983.41;8414110;28;20231;-80
2022/06/27 13:58:56;;;;;;;7.40;3.03;;;;;;;28.52;43.72;97979.75;8418878;28;20246;-80
2022/06/27 14:02:59;;;;;;;3.53;2.50;;;;;;;28.68;42.31;97984.91;8417419;28;20231;-79
2022/06/27 14:11:25;;;;;;;4.13;2.50;;;;;;;28.40;43.35;97977.50;8412469;28;20230;-78
2022/06/27 14:15:30;;;;;;;3.17;2.23;;;;;;;28.22;43.23;97977.84;8412804;28;20293;-79
2022/06/27 14:19:33;;;;;;;6.60;2.23;;;;;;;28.57;42.31;97982.69;8383765;28;20235;-80
2022/06/27 14:23:36;;;;;;;2.23;1.93;;;;;;;28.56;43.50;97983.69;8379341;28;20247;-80
2022/06/27 14:27:40;;;;;;;2.23;1.90;;;;;;;28.31;43.12;97996.41;8379616;28;20248;-79
2022/06/27 14:31:44;;;;;;;3.63;2.00;;;;;;;28.26;43.14;98004.94;8382151;28;20543;-79
2022/06/27 14:35:47;;;;;;;3.43;2.23;;;;;;;28.64;43.48;97992.44;8385034;28;20252;-79
2022/06/27 14:39:50;;;;;;;3.97;2.20;;;;;;;28.71;42.56;97987.22;8385120;28;20514;-79
2022/06/27 14:43:54;;;;;;;3.03;1.97;;;;;;;28.98;42.19;97971.59;8384709;28;20228;-80
2022/06/27 14:47:57;;;;;;;3.90;2.13;;;;;;;29.17;42.53;97976.38;8403037;28;20404;-80
2022/06/27 14:52:00;;;;;;;3.53;2.00;;;;;;;28.71;42.68;97976.56;8418289;28;20249;-79
2022/06/27 14:56:03;;;;;;;4.53;2.20;;;;;;;29.14;41.92;97974.06;8415917;28;20344;-79
2022/06/27 15:00:08;;;;;;;4.70;1.80;;;;;;;29.14;41.79;97976.72;8417735;28;20236;-80
2022/06/27 15:04:11;;;;;;;6.80;2.30;;;;;;;29.02;42.29;97973.69;8417324;28;20227;-80
2022/06/27 15:08:17;;;;;;;1.83;1.53;;;;;;;28.65;41.92;97980.78;8417334;28;20298;-80
2022/06/27 15:12:19;;;;;;;3.30;1.47;;;;;;;28.90;41.96;97977.84;8417349;28;20237;-80
2022/06/27 15:16:26;;;;;;;2.53;1.50;;;;;;;28.31;42.97;97981.28;8416800;28;20239;-79
2022/06/27 15:20:29;;;;;;;3.87;1.33;;;;;;;28.06;43.61;97988.63;8416885;28;20469;-79
2022/06/27 15:24:32;;;;;;;6.27;1.50;;;;;;;27.72;44.22;97989.00;8386964;28;20239;-79
2022/06/27 15:28:35;;;;;;;2.37;1.33;;;;;;;27.86;43.95;97994.41;8383504;28;20227;-79
2022/06/27 15:32:40;;;;;;;2.17;1.40;;;;;;;27.54;44.93;97987.47;8383379;28;20246;-80
2022/06/27 15:36:45;;;;;;;2.70;1.50;;;;;;;27.59;45.03;97981.63;8384072;28;20230;-80
2022/06/27 15:40:48;;;;;;;3.37;1.50;;;;;;;28.09;43.60;97982.94;8383213;28;20551;-80
2022/06/27 15:44:51;;;;;;;2.90;1.20;;;;;;;28.02;44.28;97990.81;8383140;28;20228;-80
2022/06/27 15:48:56;;;;;;;1.57;1.20;;;;;;;28.17;44.43;97980.22;8408633;28;20226;-80
2022/06/27 15:52:58;;;;;;;1.30;1.10;;;;;;;28.00;43.91;97984.00;8415919;28;20240;-80
2022/06/27 15:57:01;;;;;;;2.57;1.30;;;;;;;27.79;43.55;97988.13;8416205;28;20225;-80
2022/06/27 16:01:04;;;;;;;4.73;1.30;;;;;;;27.79;44.05;97982.81;8415768;28;20227;-80
2022/06/27 16:05:10;;;;;;;2.30;1.60;;;;;;;27.88;44.48;97980.91;8415695;28;20520;-80
2022/06/27 16:09:13;;;;;;;4.23;1.57;;;;;;;27.59;44.36;97974.47;8415484;28;20242;-79
2022/06/27 16:13:16;;;;;;;3.13;1.70;;;;;;;27.65;44.53;97983.59;8415166;28;20233;-79
2022/06/27 16:17:19;;;;;;;2.17;1.63;;;;;;;27.74;44.71;97976.34;8415199;28;20532;-79
2022/06/27 16:21:24;;;;;;;2.30;1.40;;;;;;;27.82;44.29;97985.13;8414590;28;20239;-78
2022/06/27 16:25:26;;;;;;;3.67;1.70;;;;;;;27.63;44.49;97988.25;8415009;28;20246;-78
2022/06/27 16:29:29;;;;;;;3.17;1.60;;;;;;;27.88;44.52;98000.41;8413731;28;20229;-78
2022/06/27 16:33:32;;;;;;;3.53;1.77;;;;;;;27.72;44.65;97995.19;8414671;28;20238;-79
2022/06/27 16:37:36;;;;;;;3.87;2.03;;;;;;;27.65;45.15;97996.88;8414524;28;20236;-79
2022/06/27 16:46:00;;;;;;;3.47;2.23;;;;;;;27.24;45.78;98003.19;8414646;28;20522;-79
2022/06/27 16:50:03;;;;;;;3.13;2.10;;;;;;;27.22;46.03;98004.38;8413747;28;20338;-79
2022/06/27 16:54:08;;;;;;;6.40;2.23;;;;;;;27.07;46.53;97991.84;8413314;28;20420;-79
2022/06/27 16:58:11;;;;;;;5.50;2.10;;;;;;;27.09;46.50;97996.94;8397149;28;20250;-88
2022/06/27 17:02:13;;;;;;;4.53;2.10;;;;;;;27.14;47.63;97986.66;8389275;28;20245;-78
2022/06/27 17:06:17;;;;;;;5.57;2.33;;;;;;;27.06;46.38;97990.16;8413539;28;20241;-86
2022/06/27 17:10:25;;;;;;;3.33;2.00;;;;;;;26.88;46.76;97997.53;8418741;28;20233;-82
2022/06/27 17:14:28;;;;;;;5.60;2.30;;;;;;;26.74;46.51;98001.72;8417694;28;20236;-81
2022/06/27 17:18:31;;;;;;;4.10;2.17;;;;;;;26.65;46.19;98019.50;8413311;28;20234;-76
2022/06/27 17:22:34;;;;;;;5.13;2.10;;;;;;;26.43;47.34;98036.13;8413267;28;20270;-76
2022/06/27 17:26:39;;;;;;;5.93;2.20;;;;;;;26.39;48.48;98034.78;8412662;28;20236;-75
2022/06/27 17:30:42;;;;;;;5.50;2.00;;;;;;;26.37;47.85;98042.06;8413606;28;20237;-73
2022/06/27 17:34:45;;;;;;;3.57;1.93;;;;;;;26.49;47.75;98051.38;8413398;28;20237;-77
2022/06/27 17:38:47;;;;;;;3.97;1.97;;;;;;;26.53;46.78;98044.72;8413101;28;20546;-78
2022/06/27 17:42:52;;;;;;;2.77;2.20;;;;;;;26.50;46.12;98059.19;8413126;28;20227;-79
2022/06/27 17:46:55;;;;;;;6.87;1.83;;;;;;;26.25;46.62;98070.78;8412794;28;20226;-79
2022/06/27 17:50:57;;;;;;;3.63;2.10;;;;;;;26.25;46.01;98079.56;8413009;28;20542;-79
2022/06/27 17:55:00;;;;;;;3.97;1.83;;;;;;;26.24;45.97;98099.16;8412621;28;20227;-79
2022/06/27 17:59:04;;;;;;;6.13;2.20;;;;;;;26.19;46.31;98098.00;8413000;28;20235;-78
2022/06/27 18:03:08;;;;;;;3.10;1.73;;;;;;;26.16;45.23;98109.78;8412594;28;20233;-79
2022/06/27 18:07:11;;;;;;;3.07;1.90;;;;;;;26.04;44.48;98113.72;8417537;28;20299;-79
2022/06/27 18:11:14;;;;;;;3.70;1.90;;;;;;;26.05;45.23;98108.25;8418691;28;20410;-79
2022/06/27 18:15:18;;;;;;;4.53;2.20;;;;;;;25.81;44.65;98097.53;8418750;28;20343;-79
2022/06/27 18:19:21;;;;;;;2.73;2.03;;;;;;;25.78;45.32;98114.63;8418600;28;20232;-79
2022/06/27 18:23:24;;;;;;;4.53;2.07;;;;;;;25.74;45.55;98134.47;8417992;28;20236;-80
2022/06/27 18:27:27;;;;;;;3.63;2.23;;;;;;;25.64;44.97;98118.69;8418339;28;20232;-81
2022/06/27 18:31:32;;;;;;;4.00;2.13;;;;;;;25.52;45.59;98131.41;8418442;28;20244;-79
2022/06/27 18:35:36;;;;;;;4.90;2.30;;;;;;;25.42;45.82;98127.22;8418264;28;20299;-80
2022/06/27 18:39:39;;;;;;;11.87;3.73;;;;;;;25.27;50.05;98166.75;8417983;28;20409;-84
2022/06/27 18:43:43;;;;;;;13.97;2.80;;;;;;;25.17;50.19;98161.53;8418132;28;20251;-84
2022/06/27 18:47:48;;;;;;;3.77;1.80;;;;;;;24.92;49.71;98176.41;8418214;28;20519;-77
2022/06/27 18:51:51;;;;;;;6.20;1.80;;;;;;;24.95;48.67;98179.56;8417628;28;20228;-82
2022/06/27 18:55:54;;;;;;;9.43;2.50;;;;;;;25.14;49.03;98196.28;8417979;28;20234;-82
2022/06/27 18:59:57;;;;;;;7.77;1.67;;;;;;;24.83;49.55;98191.41;8417774;28;20226;-82
2022/06/27 19:04:01;;;;;;;9.03;2.07;;;;;;;24.92;49.12;98184.34;8417660;28;20246;-83
2022/06/27 19:08:04;;;;;;;5.43;1.60;;;;;;;24.87;49.11;98174.22;8417440;28;20235;-83
2022/06/27 19:12:10;;;;;;;2.57;1.20;;;;;;;24.47;46.30;98185.28;8417741;28;20238;-82
2022/06/27 19:16:13;;;;;;;8.77;1.37;;;;;;;24.77;48.29;98182.25;8416623;28;20229;-83
2022/06/27 19:20:18;;;;;;;6.13;1.60;;;;;;;25.00;49.21;98175.63;8417129;28;20234;-83
2022/06/27 19:24:21;;;;;;;8.23;1.70;;;;;;;24.77;47.87;98149.66;8416586;28;20242;-83